createdAt,value
2018-09-06T00:00:07.752Z,18.50
2018-09-06T00:01:07.980Z,18.56
2018-09-06T00:02:08.218Z,18.50
2018-09-06T00:03:08.443Z,18.58
2018-09-06T00:04:08.678Z,18.49
2018-09-06T00:05:08.907Z,18.53
2018-09-06T00:06:09.138Z,18.45
2018-09-06T00:07:09.368Z,18.49
2018-09-06T00:08:09.598Z,18.47
2018-09-06T00:09:09.829Z,18.35
2018-09-06T00:10:10.061Z,18.34
2018-09-06T00:11:10.296Z,18.35
2018-09-06T00:12:10.522Z,18.47
2018-09-06T00:13:10.752Z,18.34
2018-09-06T00:14:10.989Z,18.37
2018-09-06T00:15:11.216Z,18.41
2018-09-06T00:16:11.449Z,18.37
2018-09-06T00:17:11.678Z,18.38
2018-09-06T00:18:11.913Z,18.35
2018-09-06T00:19:12.140Z,18.40
2018-09-06T00:20:12.372Z,18.31
2018-09-06T00:21:12.605Z,18.20
2018-09-06T00:22:12.832Z,18.33
2018-09-06T00:23:13.063Z,18.37
2018-09-06T00:24:13.294Z,18.37
2018-09-06T00:25:13.528Z,18.28
2018-09-06T00:26:13.754Z,18.20
2018-09-06T00:27:13.986Z,18.25
2018-09-06T00:28:14.223Z,18.15
2018-09-06T00:29:14.447Z,18.22
2018-09-06T00:30:14.676Z,18.16
2018-09-06T00:31:14.907Z,18.19
2018-09-06T00:32:15.139Z,18.18
2018-09-06T00:33:15.368Z,18.18
2018-09-06T00:34:15.603Z,18.08
2018-09-06T00:35:15.827Z,17.98
2018-09-06T00:36:16.056Z,18.10
2018-09-06T00:37:16.291Z,18.10
2018-09-06T00:38:16.522Z,18.07
2018-09-06T00:39:16.755Z,18.01
2018-09-06T00:40:16.981Z,18.05
2018-09-06T00:41:17.216Z,17.95
2018-09-06T00:42:17.443Z,17.80
2018-09-06T00:43:17.670Z,17.90
2018-09-06T00:44:17.905Z,17.86
2018-09-06T00:45:18.135Z,17.80
2018-09-06T00:46:18.366Z,17.80
2018-09-06T00:47:18.595Z,17.74
2018-09-06T00:48:18.828Z,17.80
2018-09-06T00:49:19.061Z,17.72
2018-09-06T00:50:19.327Z,17.72
2018-09-06T00:51:19.523Z,17.65
2018-09-06T00:52:19.752Z,17.59
2018-09-06T00:53:19.981Z,17.60
2018-09-06T00:54:20.214Z,17.65
2018-09-06T00:59:31.953Z,17.42
2018-09-06T01:00:32.181Z,17.51
2018-09-06T01:01:32.401Z,17.45
2018-09-06T01:02:32.627Z,17.39
2018-09-06T01:03:32.857Z,17.44
2018-09-06T01:04:33.084Z,17.48
2018-09-06T01:05:33.315Z,17.34
2018-09-06T01:06:33.545Z,17.36
2018-09-06T01:07:33.773Z,17.33
2018-09-06T01:08:33.999Z,17.38
2018-09-06T01:09:34.230Z,17.27
2018-09-06T01:10:34.459Z,17.19
2018-09-06T01:11:34.684Z,17.19
2018-09-06T01:12:34.914Z,17.19
2018-09-06T01:13:35.143Z,17.22
2018-09-06T01:14:35.373Z,17.22
2018-09-06T01:15:35.601Z,17.27
2018-09-06T01:16:35.829Z,17.36
2018-09-06T01:17:36.060Z,17.26
2018-09-06T01:18:36.289Z,17.33
2018-09-06T01:19:36.517Z,17.24
2018-09-06T01:20:36.796Z,17.22
2018-09-06T01:21:37.027Z,17.33
2018-09-06T01:22:37.255Z,17.31
2018-09-06T01:23:37.505Z,17.26
2018-09-06T01:24:37.716Z,17.27
2018-09-06T01:25:37.969Z,17.29
2018-09-06T01:26:38.173Z,17.27
2018-09-06T01:27:38.402Z,17.22
2018-09-06T01:28:38.631Z,17.23
2018-09-06T01:29:38.860Z,17.19
2018-09-06T01:30:39.093Z,17.15
2018-09-06T01:31:39.316Z,17.16
2018-09-06T01:32:39.547Z,17.22
2018-09-06T01:33:39.780Z,17.09
2018-09-06T01:34:40.003Z,17.05
2018-09-06T01:35:40.231Z,17.14
2018-09-06T01:36:40.461Z,16.97
2018-09-06T01:37:40.690Z,17.01
2018-09-06T01:38:40.923Z,16.90
2018-09-06T01:39:41.153Z,16.94
2018-09-06T01:40:41.378Z,16.84
2018-09-06T01:41:41.607Z,16.93
2018-09-06T01:42:41.838Z,16.87
2018-09-06T01:43:42.068Z,16.87
2018-09-06T01:44:42.297Z,16.94
2018-09-06T01:45:42.526Z,16.91
2018-09-06T01:46:42.756Z,16.91
2018-09-06T01:47:42.986Z,16.86
2018-09-06T01:48:43.215Z,16.74
2018-09-06T01:49:43.441Z,16.74
2018-09-06T01:50:43.670Z,16.86
2018-09-06T01:51:43.900Z,16.81
2018-09-06T01:52:44.130Z,16.69
2018-09-06T01:53:44.358Z,16.69
2018-09-06T01:54:44.590Z,16.76
2018-09-06T01:55:44.817Z,16.66
2018-09-06T01:56:45.045Z,16.69
2018-09-06T01:57:45.276Z,16.66
2018-09-06T01:58:45.502Z,16.54
2018-09-06T01:59:45.733Z,16.64
2018-09-06T02:00:45.961Z,16.56
2018-09-06T02:01:46.189Z,16.56
2018-09-06T02:02:46.421Z,16.56
2018-09-06T02:03:46.650Z,16.64
2018-09-06T02:04:46.878Z,16.64
2018-09-06T02:05:47.111Z,16.51
2018-09-06T02:06:47.336Z,16.57
2018-09-06T02:07:47.567Z,16.54
2018-09-06T02:08:47.796Z,16.58
2018-09-06T02:09:48.026Z,16.54
2018-09-06T02:10:48.255Z,16.51
2018-09-06T02:11:48.485Z,16.53
2018-09-06T02:12:48.715Z,16.58
2018-09-06T02:13:48.944Z,16.50
2018-09-06T02:14:49.176Z,16.43
2018-09-06T02:15:49.402Z,16.51
2018-09-06T02:16:49.630Z,16.49
2018-09-06T02:17:49.861Z,16.42
2018-09-06T02:18:50.090Z,16.36
2018-09-06T02:19:50.323Z,16.39
2018-09-06T02:20:50.564Z,16.36
2018-09-06T02:21:50.776Z,16.38
2018-09-06T02:22:51.005Z,16.32
2018-09-06T02:23:51.234Z,16.31
2018-09-06T02:24:51.466Z,16.38
2018-09-06T02:25:51.699Z,16.33
2018-09-06T02:26:51.926Z,16.29
2018-09-06T02:27:52.159Z,16.35
2018-09-06T02:28:52.387Z,16.26
2018-09-06T02:29:52.616Z,16.21
2018-09-06T02:30:52.844Z,16.31
2018-09-06T02:31:53.114Z,16.35
2018-09-06T02:32:53.305Z,16.39
2018-09-06T02:33:53.539Z,16.32
2018-09-06T02:34:53.767Z,16.10
2018-09-06T02:35:53.999Z,16.12
2018-09-06T02:36:54.224Z,16.12
2018-09-06T02:37:54.455Z,16.12
2018-09-06T02:38:54.682Z,16.15
2018-09-06T02:39:54.911Z,16.23
2018-09-06T02:40:55.141Z,16.16
2018-09-06T02:41:55.372Z,16.16
2018-09-06T02:42:55.601Z,16.04
2018-09-06T02:43:55.829Z,15.98
2018-09-06T02:44:56.056Z,16.00
2018-09-06T02:45:56.285Z,15.95
2018-09-06T02:46:56.514Z,16.05
2018-09-06T02:47:56.747Z,16.10
2018-09-06T02:48:56.975Z,16.10
2018-09-06T02:49:57.206Z,16.15
2018-09-06T02:50:57.437Z,16.09
2018-09-06T02:51:57.667Z,16.12
2018-09-06T02:52:57.895Z,16.12
2018-09-06T02:53:58.187Z,16.00
2018-09-06T02:54:58.362Z,16.10
2018-09-06T02:55:58.591Z,16.04
2018-09-06T02:56:58.820Z,16.09
2018-09-06T02:57:59.048Z,16.00
2018-09-06T02:58:59.275Z,15.91
2018-09-06T02:59:59.506Z,15.92
2018-09-06T03:00:59.738Z,15.94
2018-09-06T03:01:59.964Z,15.86
2018-09-06T03:03:00.192Z,15.90
2018-09-06T03:04:00.424Z,15.91
2018-09-06T03:05:00.655Z,15.91
2018-09-06T03:06:00.880Z,15.94
2018-09-06T03:07:01.110Z,15.92
2018-09-06T03:08:01.340Z,15.97
2018-09-06T03:09:01.564Z,15.86
2018-09-06T03:10:01.797Z,15.88
2018-09-06T03:11:02.025Z,15.88
2018-09-06T03:12:02.250Z,15.91
2018-09-06T03:13:02.479Z,16.00
2018-09-06T03:14:02.705Z,15.91
2018-09-06T03:15:02.943Z,15.86
2018-09-06T03:16:03.158Z,15.88
2018-09-06T03:17:03.389Z,15.82
2018-09-06T03:18:03.618Z,15.80
2018-09-06T03:19:03.848Z,15.88
2018-09-06T03:20:04.075Z,15.91
2018-09-06T03:21:04.305Z,15.82
2018-09-06T03:22:04.535Z,15.79
2018-09-06T03:23:04.765Z,15.80
2018-09-06T03:24:05.000Z,15.75
2018-09-06T03:25:05.224Z,15.80
2018-09-06T03:26:05.455Z,15.70
2018-09-06T03:27:05.684Z,15.84
2018-09-06T03:28:05.916Z,15.67
2018-09-06T03:29:06.144Z,15.79
2018-09-06T03:30:06.372Z,15.62
2018-09-06T03:31:06.602Z,15.61
2018-09-06T03:32:06.832Z,15.54
2018-09-06T03:33:07.057Z,15.49
2018-09-06T03:34:07.286Z,15.49
2018-09-06T03:35:07.514Z,15.44
2018-09-06T03:36:07.846Z,15.39
2018-09-06T03:37:07.975Z,15.61
2018-09-06T03:38:08.204Z,15.57
2018-09-06T03:39:08.435Z,15.46
2018-09-06T03:40:08.663Z,15.40
2018-09-06T03:41:08.890Z,15.39
2018-09-06T03:42:09.117Z,15.55
2018-09-06T03:43:09.346Z,15.47
2018-09-06T03:44:09.578Z,15.44
2018-09-06T03:45:09.808Z,15.42
2018-09-06T03:46:10.039Z,15.42
2018-09-06T03:47:10.277Z,15.33
2018-09-06T03:48:10.502Z,15.35
2018-09-06T03:49:10.730Z,15.37
2018-09-06T03:50:10.956Z,15.33
2018-09-06T03:51:11.187Z,15.49
2018-09-06T03:52:11.413Z,15.44
2018-09-06T03:53:11.638Z,15.57
2018-09-06T03:54:11.868Z,15.43
2018-09-06T03:55:12.097Z,15.44
2018-09-06T03:56:12.324Z,15.47
2018-09-06T03:57:12.552Z,15.46
2018-09-06T03:58:12.779Z,15.43
2018-09-06T03:59:13.009Z,15.42
2018-09-06T04:00:13.237Z,15.43
2018-09-06T04:01:13.470Z,15.49
2018-09-06T04:02:13.695Z,15.43
2018-09-06T04:03:13.924Z,15.46
2018-09-06T04:04:14.159Z,15.44
2018-09-06T04:05:14.381Z,15.47
2018-09-06T04:06:14.610Z,15.39
2018-09-06T04:07:14.839Z,15.28
2018-09-06T04:08:15.075Z,15.29
2018-09-06T04:09:15.326Z,15.33
2018-09-06T04:10:15.556Z,15.22
2018-09-06T04:11:15.788Z,15.25
2018-09-06T04:12:16.015Z,15.27
2018-09-06T04:13:16.242Z,15.22
2018-09-06T04:14:16.471Z,15.19
2018-09-06T04:15:16.703Z,15.09
2018-09-06T04:16:16.938Z,15.19
2018-09-06T04:17:17.163Z,15.24
2018-09-06T04:18:17.414Z,15.22
2018-09-06T04:19:17.619Z,15.31
2018-09-06T04:20:17.849Z,15.35
2018-09-06T04:21:18.077Z,15.25
2018-09-06T04:22:18.308Z,15.43
2018-09-06T04:23:18.536Z,15.27
2018-09-06T04:24:18.823Z,15.19
2018-09-06T04:25:18.992Z,15.27
2018-09-06T04:26:19.222Z,15.31
2018-09-06T04:27:19.449Z,15.24
2018-09-06T04:28:19.681Z,15.18
2018-09-06T04:29:19.911Z,15.25
2018-09-06T04:30:20.136Z,15.19
2018-09-06T04:31:20.366Z,15.25
2018-09-06T04:32:20.595Z,15.18
2018-09-06T04:33:20.820Z,15.06
2018-09-06T04:34:21.049Z,15.21
2018-09-06T04:35:21.279Z,15.22
2018-09-06T04:36:21.505Z,15.17
2018-09-06T04:37:21.735Z,15.25
2018-09-06T04:38:21.962Z,15.19
2018-09-06T04:39:22.191Z,15.25
2018-09-06T04:40:22.418Z,15.31
2018-09-06T04:41:22.649Z,15.25
2018-09-06T04:42:22.880Z,15.21
2018-09-06T04:43:23.114Z,15.25
2018-09-06T04:44:23.341Z,15.25
2018-09-06T04:45:23.572Z,15.22
2018-09-06T04:46:23.798Z,15.15
2018-09-06T04:47:24.028Z,15.24
2018-09-06T04:48:24.256Z,15.31
2018-09-06T04:49:24.484Z,15.21
2018-09-06T04:50:24.714Z,15.19
2018-09-06T04:51:24.946Z,15.21
2018-09-06T04:52:25.175Z,15.17
2018-09-06T04:53:25.403Z,15.28
2018-09-06T04:54:25.649Z,15.17
2018-09-06T04:55:25.903Z,15.18
2018-09-06T04:56:26.092Z,15.15
2018-09-06T04:57:26.322Z,15.29
2018-09-06T04:58:26.580Z,15.29
2018-09-06T04:59:26.780Z,15.22
2018-09-06T05:00:27.009Z,15.18
2018-09-06T05:01:27.246Z,15.28
2018-09-06T05:02:27.467Z,15.31
2018-09-06T05:03:27.702Z,15.27
2018-09-06T05:04:27.936Z,15.29
2018-09-06T05:05:28.154Z,15.28
2018-09-06T05:06:28.380Z,15.28
2018-09-06T05:07:28.610Z,15.25
2018-09-06T05:08:28.838Z,15.24
2018-09-06T05:09:29.066Z,15.36
2018-09-06T05:10:29.295Z,15.22
2018-09-06T05:11:29.532Z,15.28
2018-09-06T05:12:29.752Z,15.29
2018-09-06T05:13:29.984Z,15.31
2018-09-06T05:14:30.208Z,15.31
2018-09-06T05:15:30.436Z,15.37
2018-09-06T05:16:30.668Z,15.49
2018-09-06T05:17:30.901Z,15.57
2018-09-06T05:18:31.126Z,15.62
2018-09-06T05:19:31.358Z,15.65
2018-09-06T05:20:31.585Z,15.59
2018-09-06T05:21:31.810Z,15.70
2018-09-06T05:22:32.030Z,15.79
2018-09-06T05:23:32.258Z,16.12
2018-09-06T05:24:32.487Z,16.23
2018-09-06T05:25:32.718Z,16.39
2018-09-06T05:26:32.945Z,16.43
2018-09-06T05:27:33.181Z,16.57
2018-09-06T05:28:33.409Z,16.75
2018-09-06T05:29:33.639Z,16.68
2018-09-06T05:30:33.904Z,16.86
2018-09-06T05:31:34.100Z,17.05
2018-09-06T05:32:34.327Z,17.11
2018-09-06T05:33:34.558Z,17.26
2018-09-06T05:34:34.787Z,17.45
2018-09-06T05:35:35.023Z,17.72
2018-09-06T05:36:35.341Z,17.80
2018-09-06T05:37:35.480Z,17.92
2018-09-06T05:38:35.710Z,18.04
2018-09-06T05:39:35.943Z,18.10
2018-09-06T05:40:36.173Z,18.25
2018-09-06T05:41:36.402Z,18.37
2018-09-06T05:42:36.642Z,18.50
2018-09-06T05:43:36.862Z,18.68
2018-09-06T05:44:37.094Z,18.63
2018-09-06T05:45:37.326Z,18.73
2018-09-06T05:46:37.558Z,18.81
2018-09-06T05:47:37.795Z,18.86
2018-09-06T05:48:38.020Z,18.95
2018-09-06T05:49:38.253Z,18.95
2018-09-06T05:50:38.485Z,18.86
2018-09-06T05:51:38.714Z,19.19
2018-09-06T05:52:38.947Z,19.44
2018-09-06T05:53:39.182Z,19.31
2018-09-06T05:54:39.410Z,19.44
2018-09-06T05:55:39.642Z,19.24
2018-09-06T05:56:39.875Z,19.24
2018-09-06T05:57:40.105Z,19.30
2018-09-06T05:58:40.339Z,19.31
2018-09-06T05:59:40.624Z,19.48
2018-09-06T06:00:40.803Z,19.55
2018-09-06T06:01:41.035Z,19.39
2018-09-06T06:02:41.267Z,19.52
2018-09-06T06:03:41.499Z,19.59
2018-09-06T06:04:41.732Z,19.92
2018-09-06T06:05:41.963Z,20.04
2018-09-06T06:06:42.193Z,20.09
2018-09-06T06:07:42.427Z,20.14
2018-09-06T06:08:42.691Z,20.29
2018-09-06T06:09:42.913Z,20.43
2018-09-06T06:10:43.109Z,20.52
2018-09-06T06:11:43.369Z,20.59
2018-09-06T06:12:43.573Z,20.62
2018-09-06T06:13:43.810Z,20.72
2018-09-06T06:14:44.038Z,20.75
2018-09-06T06:15:44.272Z,20.88
2018-09-06T06:16:44.505Z,21.11
2018-09-06T06:17:44.739Z,21.22
2018-09-06T06:18:44.974Z,21.48
2018-09-06T06:19:45.205Z,21.45
2018-09-06T06:20:45.425Z,21.43
2018-09-06T06:21:45.678Z,21.46
2018-09-06T06:22:45.912Z,21.50
2018-09-06T06:23:46.145Z,21.61
2018-09-06T06:24:46.376Z,21.72
2018-09-06T06:25:46.611Z,21.79
2018-09-06T06:26:46.846Z,22.11
2018-09-06T06:27:47.078Z,22.08
2018-09-06T06:28:47.309Z,22.07
2018-09-06T06:29:47.549Z,22.10
2018-09-06T06:30:47.778Z,22.36
2018-09-06T06:31:48.064Z,22.06
2018-09-06T06:32:48.249Z,22.25
2018-09-06T06:33:48.486Z,22.54
2018-09-06T06:34:48.729Z,22.45
2018-09-06T06:35:48.955Z,22.44
2018-09-06T06:36:49.183Z,22.44
2018-09-06T06:37:49.417Z,22.66
2018-09-06T06:38:49.651Z,22.76
2018-09-06T06:39:49.938Z,22.60
2018-09-06T06:40:50.132Z,23.02
2018-09-06T06:41:50.370Z,23.37
2018-09-06T06:42:50.603Z,23.27
2018-09-06T06:43:50.838Z,22.81
2018-09-06T06:44:51.071Z,22.65
2018-09-06T06:45:51.312Z,22.59
2018-09-06T06:46:51.538Z,22.28
2018-09-06T06:47:51.770Z,22.48
2018-09-06T06:48:52.004Z,22.43
2018-09-06T06:49:52.242Z,22.26
2018-09-06T06:50:52.477Z,22.18
2018-09-06T06:51:52.705Z,22.11
2018-09-06T06:52:52.939Z,22.39
2018-09-06T06:53:53.173Z,22.38
2018-09-06T06:54:53.408Z,22.23
2018-09-06T06:55:53.644Z,22.18
2018-09-06T06:56:53.876Z,22.17
2018-09-06T06:57:54.110Z,22.36
2018-09-06T06:58:54.349Z,22.36
2018-09-06T06:59:54.580Z,22.41
2018-09-06T07:00:54.875Z,22.30
2018-09-06T07:01:55.046Z,22.30
2018-09-06T07:02:55.280Z,22.63
2018-09-06T07:03:55.515Z,22.59
2018-09-06T07:04:55.749Z,22.55
2018-09-06T07:05:55.984Z,22.33
2018-09-06T07:06:56.323Z,22.20
2018-09-06T07:07:56.451Z,22.30
2018-09-06T07:08:56.682Z,22.20
2018-09-06T07:09:56.913Z,22.10
2018-09-06T07:10:57.146Z,22.11
2018-09-06T07:11:57.381Z,22.29
2018-09-06T07:12:57.619Z,22.25
2018-09-06T07:13:57.847Z,22.25
2018-09-06T07:14:58.080Z,22.23
2018-09-06T07:15:58.316Z,22.22
2018-09-06T07:16:58.551Z,22.02
2018-09-06T07:17:58.783Z,22.14
2018-09-06T07:18:59.011Z,22.14
2018-09-06T07:19:59.242Z,22.17
2018-09-06T07:20:59.475Z,21.98
2018-09-06T07:21:59.710Z,22.15
2018-09-06T07:22:59.943Z,22.15
2018-09-06T07:24:00.180Z,22.18
2018-09-06T07:25:00.454Z,22.38
2018-09-06T07:26:00.647Z,22.51
2018-09-06T07:27:00.888Z,22.47
2018-09-06T07:28:01.115Z,22.51
2018-09-06T07:29:01.348Z,22.44
2018-09-06T07:30:01.583Z,22.55
2018-09-06T07:31:01.823Z,22.54
2018-09-06T07:32:02.046Z,22.63
2018-09-06T07:33:02.280Z,22.63
2018-09-06T07:34:02.520Z,22.80
2018-09-06T07:35:02.745Z,22.69
2018-09-06T07:36:02.978Z,22.68
2018-09-06T07:37:03.207Z,22.90
2018-09-06T07:38:03.442Z,22.91
2018-09-06T07:39:03.676Z,22.72
2018-09-06T07:40:03.910Z,22.85
2018-09-06T07:41:04.147Z,22.83
2018-09-06T07:42:04.379Z,22.81
2018-09-06T07:43:04.609Z,23.05
2018-09-06T07:44:04.844Z,23.12
2018-09-06T07:45:05.078Z,23.08
2018-09-06T07:46:05.316Z,22.91
2018-09-06T07:47:05.544Z,23.15
2018-09-06T07:48:05.779Z,23.10
2018-09-06T07:49:06.011Z,23.21
2018-09-06T07:50:06.325Z,23.25
2018-09-06T07:51:06.482Z,23.36
2018-09-06T07:52:06.727Z,23.34
2018-09-06T07:53:06.948Z,23.34
2018-09-06T07:54:07.198Z,23.47
2018-09-06T07:55:07.433Z,23.32
2018-09-06T07:56:07.665Z,23.23
2018-09-06T07:57:07.899Z,23.44
2018-09-06T07:58:08.135Z,23.37
2018-09-06T07:59:08.364Z,23.50
2018-09-06T08:00:08.598Z,23.39
2018-09-06T08:01:08.830Z,23.43
2018-09-06T08:02:09.057Z,23.40
2018-09-06T08:03:09.289Z,23.50
2018-09-06T08:04:09.522Z,23.55
2018-09-06T08:05:09.759Z,23.54
2018-09-06T08:06:09.992Z,23.77
2018-09-06T08:07:10.228Z,23.78
2018-09-06T08:08:10.459Z,23.80
2018-09-06T08:09:10.693Z,23.86
2018-09-06T08:10:10.923Z,23.84
2018-09-06T08:11:11.158Z,23.92
2018-09-06T08:12:11.447Z,23.77
2018-09-06T08:13:11.627Z,23.81
2018-09-06T08:14:11.865Z,24.03
2018-09-06T08:15:12.091Z,23.99
2018-09-06T08:16:12.327Z,24.11
2018-09-06T08:17:12.558Z,24.23
2018-09-06T08:18:12.791Z,24.17
2018-09-06T08:19:13.034Z,24.20
2018-09-06T08:20:13.260Z,24.29
2018-09-06T08:21:13.496Z,24.33
2018-09-06T08:22:13.727Z,24.30
2018-09-06T08:23:13.959Z,24.29
2018-09-06T08:24:14.235Z,24.33
2018-09-06T08:25:14.424Z,24.38
2018-09-06T08:26:14.657Z,24.43
2018-09-06T08:27:14.904Z,24.32
2018-09-06T08:28:15.127Z,24.16
2018-09-06T08:29:15.361Z,24.33
2018-09-06T08:30:15.595Z,24.40
2018-09-06T08:31:15.854Z,24.23
2018-09-06T08:32:16.066Z,24.26
2018-09-06T08:33:16.303Z,24.30
2018-09-06T08:34:16.535Z,24.17
2018-09-06T08:35:16.767Z,24.13
2018-09-06T08:36:17.003Z,24.28
2018-09-06T08:37:17.234Z,24.33
2018-09-06T08:38:17.469Z,24.39
2018-09-06T08:39:17.700Z,24.42
2018-09-06T08:40:17.932Z,24.36
2018-09-06T08:41:18.172Z,24.45
2018-09-06T08:42:18.413Z,24.55
2018-09-06T08:43:18.637Z,24.61
2018-09-06T08:44:18.871Z,24.58
2018-09-06T08:45:19.140Z,24.50
2018-09-06T08:46:19.338Z,24.51
2018-09-06T08:47:19.579Z,24.48
2018-09-06T08:48:19.802Z,24.53
2018-09-06T08:49:20.035Z,24.63
2018-09-06T08:50:20.270Z,24.57
2018-09-06T08:51:20.505Z,24.58
2018-09-06T08:52:20.800Z,24.58
2018-09-06T08:53:20.972Z,24.60
2018-09-06T08:54:21.207Z,24.53
2018-09-06T08:55:21.443Z,24.80
2018-09-06T08:56:21.685Z,24.77
2018-09-06T08:57:21.913Z,24.92
2018-09-06T08:58:22.165Z,25.06
2018-09-06T08:59:22.385Z,25.06
2018-09-06T09:00:22.612Z,25.14
2018-09-06T09:01:22.853Z,25.23
2018-09-06T09:02:23.138Z,25.28
2018-09-06T09:03:23.388Z,25.31
2018-09-06T09:04:23.562Z,25.35
2018-09-06T09:05:23.791Z,25.46
2018-09-06T09:06:24.023Z,25.47
2018-09-06T09:07:24.265Z,25.63
2018-09-06T09:08:24.508Z,25.73
2018-09-06T09:09:24.722Z,25.78
2018-09-06T09:10:24.956Z,25.72
2018-09-06T09:11:25.196Z,25.66
2018-09-06T09:12:25.436Z,25.73
2018-09-06T09:13:25.698Z,25.72
2018-09-06T09:14:25.903Z,25.70
2018-09-06T09:15:26.128Z,25.78
2018-09-06T09:16:26.383Z,25.75
2018-09-06T09:17:26.598Z,25.80
2018-09-06T09:18:26.954Z,25.65
2018-09-06T09:19:27.068Z,25.65
2018-09-06T09:20:27.323Z,25.78
2018-09-06T09:21:27.564Z,25.66
2018-09-06T09:22:27.972Z,25.70
2018-09-06T09:23:28.011Z,25.75
2018-09-06T09:24:28.238Z,25.66
2018-09-06T09:25:28.528Z,25.62
2018-09-06T09:26:28.710Z,25.68
2018-09-06T09:27:28.943Z,25.75
2018-09-06T09:28:29.178Z,25.73
2018-09-06T09:29:29.408Z,25.72
2018-09-06T09:30:29.686Z,25.70
2018-09-06T09:31:29.876Z,25.81
2018-09-06T09:32:30.110Z,25.91
2018-09-06T09:33:30.345Z,26.09
2018-09-06T09:34:30.579Z,26.06
2018-09-06T09:35:30.817Z,26.26
2018-09-06T09:36:31.050Z,26.26
2018-09-06T09:37:31.325Z,26.28
2018-09-06T09:38:31.513Z,26.44
2018-09-06T09:39:31.748Z,26.47
2018-09-06T09:40:31.977Z,26.58
2018-09-06T09:41:32.213Z,26.73
2018-09-06T09:42:32.443Z,26.70
2018-09-06T09:43:32.686Z,26.77
2018-09-06T09:44:32.919Z,26.83
2018-09-06T09:45:33.163Z,26.96
2018-09-06T09:48:06.577Z,27.07
2018-09-06T09:49:06.817Z,27.10
2018-09-06T09:50:07.047Z,27.17
2018-09-06T09:51:07.283Z,27.11
2018-09-06T09:52:07.520Z,27.08
2018-09-06T09:53:07.753Z,27.12
2018-09-06T09:54:07.989Z,27.18
2018-09-06T09:55:08.224Z,27.27
2018-09-06T09:56:08.460Z,27.27
2018-09-06T09:57:08.767Z,27.33
2018-09-06T09:58:08.931Z,27.37
2018-09-06T09:59:09.166Z,27.44
2018-09-06T10:00:09.398Z,27.54
2018-09-06T10:01:09.634Z,27.54
2018-09-06T10:02:09.873Z,27.47
2018-09-06T10:03:10.110Z,27.55
2018-09-06T10:04:10.344Z,27.59
2018-09-06T10:05:10.585Z,27.70
2018-09-06T10:06:10.819Z,27.75
2018-09-06T10:07:11.052Z,27.67
2018-09-06T10:08:11.288Z,27.70
2018-09-06T10:09:11.520Z,27.70
2018-09-06T10:10:11.756Z,27.75
2018-09-06T10:11:11.992Z,27.77
2018-09-06T10:12:12.224Z,27.77
2018-09-06T10:13:12.460Z,27.86
2018-09-06T10:14:12.700Z,27.87
2018-09-06T10:15:12.932Z,27.95
2018-09-06T10:16:13.168Z,28.11
2018-09-06T10:17:13.446Z,28.07
2018-09-06T10:18:13.644Z,28.04
2018-09-06T10:19:13.880Z,28.04
2018-09-06T10:20:14.116Z,28.02
2018-09-06T10:21:14.353Z,27.98
2018-09-06T10:22:14.587Z,27.83
2018-09-06T10:23:14.824Z,27.75
2018-09-06T10:24:15.062Z,27.78
2018-09-06T10:25:15.297Z,27.86
2018-09-06T10:26:15.535Z,27.87
2018-09-06T10:27:15.768Z,27.98
2018-09-06T10:28:16.004Z,28.02
2018-09-06T10:29:16.245Z,27.85
2018-09-06T10:30:16.479Z,28.00
2018-09-06T10:31:16.714Z,27.98
2018-09-06T10:32:16.949Z,28.04
2018-09-06T10:33:17.186Z,28.04
2018-09-06T10:34:17.423Z,28.08
2018-09-06T10:35:17.667Z,28.19
2018-09-06T10:36:17.889Z,28.26
2018-09-06T10:37:18.129Z,28.29
2018-09-06T10:38:18.363Z,28.35
2018-09-06T10:39:18.610Z,28.42
2018-09-06T10:40:18.838Z,28.41
2018-09-06T10:41:19.075Z,28.25
2018-09-06T10:42:19.315Z,28.48
2018-09-06T10:43:19.548Z,28.42
2018-09-06T10:44:19.786Z,28.45
2018-09-06T10:45:20.025Z,28.42
2018-09-06T10:46:20.261Z,28.42
2018-09-06T10:47:20.498Z,28.52
2018-09-06T10:48:20.736Z,28.60
2018-09-06T10:49:20.969Z,28.63
2018-09-06T10:50:21.216Z,28.62
2018-09-06T10:51:21.442Z,28.76
2018-09-06T10:52:21.680Z,28.75
2018-09-06T10:53:21.915Z,28.56
2018-09-06T10:54:22.155Z,28.70
2018-09-06T10:55:22.391Z,28.72
2018-09-06T10:56:22.625Z,28.75
2018-09-06T10:57:22.861Z,28.81
2018-09-06T10:58:23.101Z,28.93
2018-09-06T10:59:23.339Z,28.94
2018-09-06T11:00:23.576Z,28.82
2018-09-06T11:01:23.814Z,28.42
2018-09-06T11:02:24.050Z,28.45
2018-09-06T11:03:24.288Z,28.59
2018-09-06T11:04:24.528Z,28.72
2018-09-06T11:05:24.763Z,28.85
2018-09-06T11:06:25.001Z,28.89
2018-09-06T11:07:25.237Z,29.02
2018-09-06T11:08:25.526Z,29.10
2018-09-06T11:09:25.722Z,29.19
2018-09-06T11:10:25.949Z,29.12
2018-09-06T11:11:26.185Z,29.29
2018-09-06T11:12:26.423Z,29.29
2018-09-06T11:13:26.661Z,29.41
2018-09-06T11:14:26.899Z,29.44
2018-09-06T11:15:27.135Z,29.50
2018-09-06T11:16:27.374Z,29.59
2018-09-06T11:17:27.611Z,29.72
2018-09-06T11:18:27.848Z,29.84
2018-09-06T11:19:28.083Z,29.81
2018-09-06T11:20:28.320Z,29.86
2018-09-06T11:21:28.643Z,29.75
2018-09-06T11:22:28.993Z,29.72
2018-09-06T11:23:29.033Z,29.69
2018-09-06T11:24:29.271Z,29.69
2018-09-06T11:25:29.507Z,29.71
2018-09-06T11:26:29.741Z,29.71
2018-09-06T11:27:30.039Z,29.57
2018-09-06T11:28:30.221Z,29.63
2018-09-06T11:29:30.455Z,29.63
2018-09-06T11:30:30.694Z,29.68
2018-09-06T11:31:30.930Z,29.65
2018-09-06T11:32:31.171Z,29.59
2018-09-06T11:33:31.404Z,29.63
2018-09-06T11:34:31.643Z,29.57
2018-09-06T11:35:31.879Z,29.61
2018-09-06T11:36:32.114Z,29.59
2018-09-06T11:37:32.351Z,29.63
2018-09-06T11:38:32.590Z,29.71
2018-09-06T11:39:32.828Z,29.75
2018-09-06T11:40:33.096Z,29.76
2018-09-06T11:41:33.305Z,29.76
2018-09-06T11:42:33.539Z,29.73
2018-09-06T11:43:33.777Z,29.73
2018-09-06T11:44:34.013Z,29.76
2018-09-06T11:45:34.286Z,29.66
2018-09-06T11:46:34.500Z,29.53
2018-09-06T11:47:34.731Z,29.60
2018-09-06T11:48:34.960Z,29.59
2018-09-06T11:49:35.226Z,29.60
2018-09-06T11:50:35.445Z,29.56
2018-09-06T11:51:35.670Z,29.66
2018-09-06T11:52:35.908Z,29.65
2018-09-06T11:53:36.143Z,29.45
2018-09-06T11:54:36.381Z,29.31
2018-09-06T11:55:36.618Z,29.27
2018-09-06T11:56:36.853Z,29.12
2018-09-06T11:57:37.093Z,29.01
2018-09-06T11:58:37.335Z,28.96
2018-09-06T11:59:37.573Z,28.76
2018-09-06T12:00:37.809Z,28.64
2018-09-06T12:01:38.046Z,28.35
2018-09-06T12:02:38.286Z,28.22
2018-09-06T12:03:38.523Z,28.15
2018-09-06T12:04:38.763Z,28.08
2018-09-06T12:05:38.998Z,27.85
2018-09-06T12:06:39.238Z,27.77
2018-09-06T12:07:39.475Z,27.68
2018-09-06T12:08:39.714Z,27.35
2018-09-06T12:09:39.951Z,27.27
2018-09-06T12:10:40.189Z,27.03
2018-09-06T12:11:40.428Z,26.88
2018-09-06T12:12:40.665Z,26.60
2018-09-06T12:13:40.913Z,26.48
2018-09-06T12:14:41.147Z,26.10
2018-09-06T12:15:41.387Z,25.98
2018-09-06T12:16:41.617Z,25.81
2018-09-06T12:17:41.855Z,25.65
2018-09-06T12:18:42.091Z,25.41
2018-09-06T12:19:42.328Z,24.93
2018-09-06T12:20:42.566Z,24.61
2018-09-06T12:21:42.802Z,24.47
2018-09-06T12:22:43.040Z,24.42
2018-09-06T12:23:43.275Z,24.28
2018-09-06T12:24:43.512Z,24.06
2018-09-06T12:25:43.812Z,23.81
2018-09-06T12:26:43.983Z,23.81
2018-09-06T12:27:44.220Z,23.76
2018-09-06T12:28:44.456Z,23.51
2018-09-06T12:29:44.693Z,23.39
2018-09-06T12:30:44.929Z,23.25
2018-09-06T12:31:45.165Z,23.27
2018-09-06T12:32:45.400Z,23.23
2018-09-06T12:33:45.633Z,23.10
2018-09-06T12:34:45.871Z,22.93
2018-09-06T12:35:46.106Z,22.87
2018-09-06T12:36:46.342Z,22.59
2018-09-06T12:37:46.575Z,22.44
2018-09-06T12:38:46.991Z,22.41
2018-09-06T12:39:47.046Z,22.23
2018-09-06T12:40:47.278Z,22.26
2018-09-06T12:41:47.517Z,22.20
2018-09-06T12:42:47.749Z,22.13
2018-09-06T12:43:47.983Z,22.11
2018-09-06T12:44:48.216Z,22.20
2018-09-06T12:45:48.452Z,22.00
2018-09-06T12:46:48.688Z,21.82
2018-09-06T12:47:48.921Z,21.85
2018-09-06T12:48:49.156Z,21.92
2018-09-06T12:49:49.392Z,21.79
2018-09-06T12:50:49.627Z,21.85
2018-09-06T12:51:49.859Z,21.91
2018-09-06T12:52:50.094Z,21.89
2018-09-06T12:53:50.330Z,22.00
2018-09-06T12:54:50.562Z,21.96
2018-09-06T12:55:50.801Z,21.99
2018-09-06T12:56:51.032Z,22.10
2018-09-06T12:57:51.269Z,22.00
2018-09-06T12:58:51.504Z,21.88
2018-09-06T12:59:51.738Z,21.82
2018-09-06T13:00:51.973Z,21.85